Time;durP1;ratioP1;P1;durP2;ratioP2;P2;SDS_P1;SDS_P2;PMS_P1;PMS_P2;Temp;Humidity;BMP_temperature;BMP_pressure;BME280_temperature;BME280_humidity;BME280_pressure;Samples;Min_cycle;Max_cycle;Signal;HPM_P1;HPM_P2
2023/07/22 00:01:53;;;;;;;6.80;2.20;;;;;;;14.28;100.00;100571.53;5012885;28;21002;-72
2023/07/22 00:04:20;;;;;;;7.90;2.37;;;;;;;14.29;100.00;100570.38;5013199;28;20498;-72
2023/07/22 00:06:46;;;;;;;7.60;3.00;;;;;;;14.25;100.00;100574.09;5012485;28;20456;-72
2023/07/22 00:09:13;;;;;;;7.63;2.50;;;;;;;14.24;100.00;100570.56;5012085;28;20990;-72
2023/07/22 00:11:40;;;;;;;7.37;2.03;;;;;;;14.25;100.00;100571.38;5013962;28;20531;-73
2023/07/22 00:14:07;;;;;;;7.20;2.30;;;;;;;14.23;100.00;100568.97;5014184;28;20927;-73
2023/07/22 00:16:34;;;;;;;8.07;2.97;;;;;;;14.29;100.00;100567.66;5011895;28;20484;-72
2023/07/22 00:19:01;;;;;;;9.57;3.30;;;;;;;14.36;100.00;100567.97;5015416;28;20578;-73
2023/07/22 00:21:29;;;;;;;8.13;2.43;;;;;;;14.40;100.00;100579.03;5013178;28;20444;-73
2023/07/22 00:23:55;;;;;;;7.00;2.73;;;;;;;14.46;100.00;100577.69;5011372;28;20467;-72
2023/07/22 00:26:22;;;;;;;7.90;2.67;;;;;;;14.55;100.00;100577.69;5013954;28;20510;-73
2023/07/22 00:28:48;;;;;;;7.40;2.80;;;;;;;14.60;100.00;100581.03;5013127;28;20881;-73
2023/07/22 00:31:15;;;;;;;7.60;2.40;;;;;;;14.61;100.00;100577.19;5013575;28;20940;-73
2023/07/22 00:33:43;;;;;;;10.93;3.30;;;;;;;14.62;100.00;100583.44;5014181;28;20436;-73
2023/07/22 00:36:10;;;;;;;7.13;2.30;;;;;;;14.64;100.00;100592.06;5015223;28;20504;-73
2023/07/22 00:38:36;;;;;;;7.47;2.97;;;;;;;14.60;100.00;100585.69;5033501;28;20482;-73
2023/07/22 00:41:04;;;;;;;7.07;2.77;;;;;;;14.62;100.00;100580.72;5012086;28;20532;-72
2023/07/22 00:43:31;;;;;;;8.33;2.80;;;;;;;14.66;100.00;100573.47;5010694;28;20512;-72
2023/07/22 00:45:58;;;;;;;7.90;2.97;;;;;;;14.72;100.00;100569.44;5012414;28;20479;-72
2023/07/22 00:48:25;;;;;;;8.37;3.10;;;;;;;14.75;100.00;100574.25;5012353;28;20867;-72
2023/07/22 00:50:53;;;;;;;8.70;3.30;;;;;;;14.79;100.00;100575.19;5012591;28;20460;-72
2023/07/22 00:53:20;;;;;;;7.70;3.43;;;;;;;14.77;100.00;100573.91;5013358;28;20510;-72
2023/07/22 00:55:47;;;;;;;8.27;3.17;;;;;;;14.72;100.00;100577.59;5013569;28;20460;-72
2023/07/22 00:58:14;;;;;;;7.63;2.90;;;;;;;14.72;100.00;100585.78;5013415;28;20825;-72
2023/07/22 01:00:40;;;;;;;8.20;3.00;;;;;;;14.80;100.00;100589.59;5012979;28;20483;-72
2023/07/22 01:03:07;;;;;;;7.97;3.10;;;;;;;14.81;100.00;100588.47;5011236;28;20555;-72
2023/07/22 01:05:36;;;;;;;8.50;3.10;;;;;;;14.83;100.00;100586.19;5011486;28;20546;-72
2023/07/22 01:08:05;;;;;;;8.00;2.60;;;;;;;14.81;100.00;100591.19;5010197;28;20551;-72
2023/07/22 01:10:32;;;;;;;8.20;3.03;;;;;;;14.80;100.00;100590.41;5015699;28;20495;-72
2023/07/22 01:12:58;;;;;;;12.37;3.10;;;;;;;14.84;100.00;100594.06;5016589;28;21014;-72
2023/07/22 01:15:26;;;;;;;7.50;2.90;;;;;;;14.81;100.00;100589.28;5013260;28;20492;-72
2023/07/22 01:17:55;;;;;;;8.97;2.97;;;;;;;14.84;100.00;100591.34;5016039;28;20478;-72
2023/07/22 01:20:22;;;;;;;7.73;2.87;;;;;;;14.82;100.00;100593.59;5016067;28;20478;-72
2023/07/22 01:22:53;;;;;;;6.67;2.30;;;;;;;14.84;100.00;100590.56;5013948;28;20551;-72
2023/07/22 01:25:21;;;;;;;8.10;3.23;;;;;;;14.90;100.00;100589.22;5016228;28;20484;-72
2023/07/22 01:27:48;;;;;;;6.90;2.87;;;;;;;14.92;100.00;100589.72;5014951;28;20470;-72
2023/07/22 01:30:14;;;;;;;10.93;3.90;;;;;;;14.92;100.00;100586.16;5014279;28;20471;-72
2023/07/22 01:32:41;;;;;;;7.43;3.13;;;;;;;14.93;100.00;100591.28;5015519;28;20544;-71
2023/07/22 01:35:09;;;;;;;8.23;3.10;;;;;;;14.94;100.00;100586.63;5014998;28;20484;-72
2023/07/22 01:37:36;;;;;;;8.60;3.07;;;;;;;14.89;100.00;100585.69;5014656;28;20455;-72
2023/07/22 01:40:11;;;;;;;9.50;3.80;;;;;;;14.88;100.00;100578.66;5011539;28;20515;-72
2023/07/22 01:42:38;;;;;;;7.83;2.93;;;;;;;14.87;100.00;100587.97;5005496;28;20463;-72
2023/07/22 01:45:07;;;;;;;10.87;3.60;;;;;;;14.88;100.00;100577.84;5014040;28;20562;-72
2023/07/22 01:47:34;;;;;;;8.17;3.30;;;;;;;14.86;100.00;100597.25;5016498;28;20514;-72
2023/07/22 01:50:01;;;;;;;8.07;3.00;;;;;;;14.82;100.00;100590.84;5006604;28;20461;-72
2023/07/22 01:52:27;;;;;;;8.93;3.50;;;;;;;14.81;100.00;100594.72;5007887;28;20471;-72
2023/07/22 01:54:54;;;;;;;8.63;3.10;;;;;;;14.77;100.00;100601.16;5014968;28;20507;-72
2023/07/22 01:57:22;;;;;;;8.53;3.23;;;;;;;14.76;100.00;100600.38;5005837;28;20947;-72
2023/07/22 01:59:49;;;;;;;9.30;3.47;;;;;;;14.76;100.00;100602.31;5016033;28;20512;-72
2023/07/22 02:02:15;;;;;;;7.67;2.90;;;;;;;14.73;100.00;100609.19;5013747;28;20545;-72
2023/07/22 02:04:42;;;;;;;7.57;2.63;;;;;;;14.71;100.00;100611.47;5037772;22;20549;-73
2023/07/22 02:07:09;;;;;;;9.60;3.07;;;;;;;14.74;100.00;100615.44;5046114;28;20459;-73
2023/07/22 02:09:36;;;;;;;8.47;3.30;;;;;;;14.70;100.00;100615.31;5050703;28;20934;-73
2023/07/22 02:12:03;;;;;;;8.43;3.37;;;;;;;14.64;100.00;100622.06;5041292;28;20462;-71
2023/07/22 02:14:31;;;;;;;7.00;2.80;;;;;;;14.56;100.00;100620.16;5051897;28;20546;-70
2023/07/22 02:16:58;;;;;;;6.83;2.87;;;;;;;14.53;100.00;100620.84;5049578;28;20552;-71
2023/07/22 02:19:24;;;;;;;7.80;2.87;;;;;;;14.54;100.00;100630.63;5036945;28;20518;-71
2023/07/22 02:21:51;;;;;;;6.73;2.33;;;;;;;14.52;100.00;100624.69;5045776;28;20886;-70
2023/07/22 02:24:18;;;;;;;8.37;2.90;;;;;;;14.42;100.00;100628.53;5051244;28;20977;-71
2023/07/22 02:26:45;;;;;;;7.07;2.97;;;;;;;14.39;100.00;100640.09;5047056;28;20481;-71
2023/07/22 02:29:13;;;;;;;12.17;3.37;;;;;;;14.36;100.00;100643.47;5049526;28;20454;-70
2023/07/22 02:31:41;;;;;;;8.20;3.13;;;;;;;14.32;100.00;100643.31;5047303;28;20450;-70
2023/07/22 02:34:07;;;;;;;6.80;2.70;;;;;;;14.34;100.00;100632.91;5042502;28;20992;-70
2023/07/22 02:36:34;;;;;;;7.33;2.73;;;;;;;14.31;100.00;100635.47;5044343;28;20478;-70
2023/07/22 02:39:00;;;;;;;7.73;3.30;;;;;;;14.31;100.00;100640.94;5049451;28;20485;-72
2023/07/22 02:41:27;;;;;;;8.77;3.10;;;;;;;14.25;100.00;100640.28;5049525;28;20485;-72
2023/07/22 02:43:54;;;;;;;7.53;2.60;;;;;;;14.27;100.00;100646.22;5053542;28;21016;-72
2023/07/22 02:46:20;;;;;;;6.80;2.20;;;;;;;14.29;100.00;100649.41;5050243;28;20478;-72
2023/07/22 02:48:49;;;;;;;7.03;2.83;;;;;;;14.27;100.00;100654.38;5046930;28;20489;-72
2023/07/22 02:51:16;;;;;;;7.17;2.73;;;;;;;14.20;100.00;100648.63;5048867;28;20486;-72
2023/07/22 02:53:44;;;;;;;9.20;3.30;;;;;;;14.16;100.00;100653.13;5051086;28;20542;-72
2023/07/22 02:56:11;;;;;;;7.33;2.50;;;;;;;14.15;100.00;100659.69;5053139;28;20907;-72
2023/07/22 02:58:37;;;;;;;7.13;2.80;;;;;;;14.17;100.00;100662.13;5041516;28;20462;-71
2023/07/22 03:01:05;;;;;;;7.30;2.53;;;;;;;14.15;100.00;100656.97;5053358;28;20552;-71
2023/07/22 03:03:32;;;;;;;7.67;2.77;;;;;;;14.14;100.00;100656.16;5052478;28;20491;-71
2023/07/22 03:06:01;;;;;;;7.60;3.13;;;;;;;14.13;100.00;100656.50;5053260;28;20490;-71
2023/07/22 03:08:27;;;;;;;5.87;1.90;;;;;;;14.15;100.00;100665.16;5047506;28;21085;-71
2023/07/22 03:10:54;;;;;;;7.47;2.80;;;;;;;14.14;100.00;100663.56;5045842;28;20469;-71
2023/07/22 03:13:20;;;;;;;9.10;2.80;;;;;;;14.13;100.00;100662.75;5046250;28;20557;-71
2023/07/22 03:15:47;;;;;;;7.57;2.60;;;;;;;14.08;100.00;100667.56;5039421;28;20567;-71
2023/07/22 03:18:14;;;;;;;7.40;2.87;;;;;;;14.05;100.00;100669.00;5047568;28;20497;-71
2023/07/22 03:20:41;;;;;;;7.90;2.70;;;;;;;14.06;100.00;100672.53;5034664;28;20493;-71
2023/07/22 03:23:09;;;;;;;8.90;2.60;;;;;;;14.10;100.00;100673.50;5045125;28;20453;-71
2023/07/22 03:25:36;;;;;;;6.40;2.17;;;;;;;14.09;100.00;100671.88;5045508;28;20887;-71
2023/07/22 03:28:05;;;;;;;9.47;3.63;;;;;;;14.08;100.00;100670.31;5048026;28;20975;-71
2023/07/22 03:30:32;;;;;;;6.67;2.73;;;;;;;14.12;100.00;100676.69;5042010;28;20459;-71
2023/07/22 03:32:58;;;;;;;7.20;2.40;;;;;;;14.14;100.00;100679.91;5049371;28;20462;-72
2023/07/22 03:35:25;;;;;;;6.93;2.87;;;;;;;14.12;100.00;100682.13;5051217;28;20507;-72
2023/07/22 03:37:52;;;;;;;7.13;2.60;;;;;;;14.11;100.00;100691.44;5040346;28;21017;-72
2023/07/22 03:40:20;;;;;;;7.77;2.90;;;;;;;14.12;100.00;100682.13;5049409;28;20943;-72
2023/07/22 03:42:46;;;;;;;6.63;2.50;;;;;;;14.14;100.00;100685.34;5049238;28;20469;-69
2023/07/22 03:45:13;;;;;;;7.60;3.00;;;;;;;14.15;100.00;100689.66;5046530;28;20665;-72
2023/07/22 03:47:40;;;;;;;8.30;2.57;;;;;;;14.19;100.00;100700.72;5043232;28;20545;-74
2023/07/22 03:50:08;;;;;;;6.70;2.90;;;;;;;14.16;100.00;100701.34;5053126;28;20458;-73
2023/07/22 03:52:34;;;;;;;7.90;2.50;;;;;;;14.13;100.00;100700.88;5053347;28;20498;-73
2023/07/22 03:55:01;;;;;;;6.90;2.23;;;;;;;14.13;100.00;100700.88;5051935;28;20474;-73
2023/07/22 03:57:30;;;;;;;7.60;2.57;;;;;;;14.14;100.00;100701.69;5051726;28;20458;-73
2023/07/22 03:59:56;;;;;;;7.47;2.30;;;;;;;14.14;100.00;100704.41;5040001;28;20577;-73
2023/07/22 04:02:23;;;;;;;7.57;2.57;;;;;;;14.08;100.00;100702.97;5040202;28;20938;-72
2023/07/22 04:04:51;;;;;;;7.90;2.10;;;;;;;14.10;100.00;100701.53;5049227;28;20573;-73
2023/07/22 04:07:17;;;;;;;6.30;2.30;;;;;;;14.10;100.00;100701.53;5053747;28;20541;-73
2023/07/22 04:09:44;;;;;;;7.03;2.60;;;;;;;14.14;100.00;100697.03;5049096;28;20479;-73
2023/07/22 04:12:11;;;;;;;6.33;2.10;;;;;;;14.17;100.00;100702.97;5050174;28;20988;-73
2023/07/22 04:14:40;;;;;;;9.30;3.60;;;;;;;14.20;100.00;100700.38;5052225;28;21102;-73
2023/07/22 04:17:07;;;;;;;6.87;2.30;;;;;;;14.20;100.00;100710.50;5045833;28;20466;-73
2023/07/22 04:19:34;;;;;;;7.73;2.80;;;;;;;14.17;100.00;100705.69;5053234;28;20489;-73
2023/07/22 04:22:03;;;;;;;9.20;2.90;;;;;;;14.20;100.00;100705.84;5049262;28;20832;-73
2023/07/22 04:24:30;;;;;;;6.80;2.37;;;;;;;14.19;100.00;100706.16;5049414;28;20553;-73
2023/07/22 04:26:57;;;;;;;5.90;1.73;;;;;;;14.24;100.00;100712.25;5050637;28;20464;-73
2023/07/22 04:29:24;;;;;;;7.50;2.77;;;;;;;14.22;100.00;100705.53;5044691;28;20541;-73
2023/07/22 04:31:52;;;;;;;8.83;2.90;;;;;;;14.23;100.00;100705.19;5048281;28;20541;-73
2023/07/22 04:34:19;;;;;;;7.43;2.43;;;;;;;14.26;100.00;100707.28;5040501;28;20463;-73
2023/07/22 04:36:45;;;;;;;6.80;2.40;;;;;;;14.24;100.00;100712.25;5038234;28;20553;-72
2023/07/22 04:39:12;;;;;;;6.50;2.47;;;;;;;14.23;100.00;100705.19;5033183;28;20531;-70
2023/07/22 04:41:39;;;;;;;14.40;3.07;;;;;;;14.25;100.00;100713.03;5034190;28;20459;-70
2023/07/22 04:44:05;;;;;;;6.60;2.67;;;;;;;14.31;100.00;100703.59;5047205;28;20458;-70
2023/07/22 04:46:32;;;;;;;6.83;2.30;;;;;;;14.32;100.00;100714.16;5041020;28;20565;-70
2023/07/22 04:49:01;;;;;;;7.17;2.93;;;;;;;14.33;100.00;100715.75;5055525;28;20512;-70
2023/07/22 04:51:27;;;;;;;6.10;2.20;;;;;;;14.30;100.00;100719.16;5042060;28;20459;-70
2023/07/22 04:53:54;;;;;;;7.43;2.80;;;;;;;14.30;100.00;100723.81;5052817;28;20485;-70
2023/07/22 04:56:21;;;;;;;7.67;2.83;;;;;;;14.30;100.00;100726.53;5056419;28;20514;-70
2023/07/22 04:58:49;;;;;;;6.03;1.90;;;;;;;14.33;100.00;100725.84;5056419;28;20833;-69
2023/07/22 05:01:16;;;;;;;7.40;2.90;;;;;;;14.35;100.00;100731.81;5056288;28;20489;-70
2023/07/22 05:03:42;;;;;;;7.80;2.47;;;;;;;14.39;100.00;100735.50;5042473;28;20568;-69
2023/07/22 05:06:10;;;;;;;8.10;2.73;;;;;;;14.44;100.00;100735.31;5050006;28;20486;-69
2023/07/22 05:08:38;;;;;;;6.67;2.50;;;;;;;14.49;100.00;100739.81;5043051;28;20534;-69
2023/07/22 05:11:05;;;;;;;6.93;2.30;;;;;;;14.53;100.00;100746.25;5035886;28;20435;-69
2023/07/22 05:13:31;;;;;;;10.20;2.43;;;;;;;14.54;100.00;100736.94;5037190;28;20462;-69
2023/07/22 05:15:58;;;;;;;7.00;2.87;;;;;;;14.62;100.00;100749.75;5047921;28;20485;-69
2023/07/22 05:18:25;;;;;;;7.93;2.90;;;;;;;14.59;100.00;100742.19;5052576;28;20467;-69
2023/07/22 05:20:51;;;;;;;8.17;3.37;;;;;;;14.64;100.00;100745.56;5041946;28;20967;-69
2023/07/22 05:23:19;;;;;;;7.33;2.90;;;;;;;14.64;100.00;100745.56;5045523;28;20502;-69
2023/07/22 05:25:51;;;;;;;8.83;3.70;;;;;;;14.62;100.00;100750.53;5042488;28;20540;-69
2023/07/22 05:28:18;;;;;;;7.93;2.27;;;;;;;14.67;100.00;100755.03;5055322;28;20434;-68
2023/07/22 05:30:45;;;;;;;8.53;2.93;;;;;;;14.72;100.00;100754.03;5054222;28;20545;-68
2023/07/22 05:33:11;;;;;;;9.77;3.47;;;;;;;14.76;100.00;100758.53;5041929;28;20491;-69
2023/07/22 05:35:38;;;;;;;9.70;4.00;;;;;;;14.82;100.00;100753.69;5042608;28;20574;-69
2023/07/22 05:38:05;;;;;;;9.73;3.73;;;;;;;14.88;100.00;100766.84;5043710;28;20520;-69
2023/07/22 05:40:33;;;;;;;8.13;2.60;;;;;;;14.92;100.00;100767.00;5050488;28;20496;-69
2023/07/22 05:43:00;;;;;;;7.60;2.93;;;;;;;14.95;100.00;100774.50;5053990;28;20488;-69
2023/07/22 05:45:27;;;;;;;11.30;3.80;;;;;;;14.98;100.00;100771.13;5047001;28;20475;-69
2023/07/22 05:47:54;;;;;;;11.00;4.03;;;;;;;15.04;100.00;100771.75;5056654;28;20447;-69
2023/07/22 05:50:20;;;;;;;12.40;4.10;;;;;;;15.06;100.00;100770.31;5054897;28;20446;-70
2023/07/22 05:52:47;;;;;;;8.67;3.30;;;;;;;15.07;100.00;100771.91;5055846;28;20500;-70
2023/07/22 05:55:14;;;;;;;8.90;3.67;;;;;;;15.15;100.00;100778.47;5051683;28;20838;-70
2023/07/22 05:57:42;;;;;;;7.70;3.10;;;;;;;15.21;100.00;100776.34;5053431;28;20465;-70
2023/07/22 06:00:15;;;;;;;9.00;2.77;;;;;;;15.22;100.00;100777.94;5043881;28;20540;-70
2023/07/22 06:02:42;;;;;;;11.03;3.70;;;;;;;15.30;100.00;100786.09;5039885;28;20539;-70
2023/07/22 06:05:09;;;;;;;8.80;2.83;;;;;;;15.35;100.00;100785.91;4996505;28;1115795;-70
2023/07/22 06:07:36;;;;;;;7.40;3.20;;;;;;;15.39;100.00;100781.41;5054400;28;20729;-70
2023/07/22 06:10:03;;;;;;;9.13;3.63;;;;;;;15.47;100.00;100792.63;5045163;28;20495;-70
2023/07/22 06:12:29;;;;;;;9.43;3.90;;;;;;;15.49;100.00;100788.41;5039346;28;20450;-70
2023/07/22 06:14:57;;;;;;;11.83;3.37;;;;;;;15.53;100.00;100789.34;5044528;28;20486;-70
2023/07/22 06:17:24;;;;;;;8.80;3.20;;;;;;;15.57;100.00;100790.31;5045368;28;20496;-70
2023/07/22 06:19:51;;;;;;;10.40;2.83;;;;;;;15.57;100.00;100790.31;5044422;28;20477;-70
2023/07/22 06:22:17;;;;;;;9.83;2.87;;;;;;;15.68;100.00;100796.22;5055393;28;20933;-70
2023/07/22 06:24:44;;;;;;;10.53;3.30;;;;;;;15.72;100.00;100791.72;5053810;28;20557;-70
2023/07/22 06:27:11;;;;;;;10.30;3.23;;;;;;;15.80;100.00;100796.28;5044267;28;20474;-70
2023/07/22 06:29:38;;;;;;;13.93;4.23;;;;;;;15.87;100.00;100803.97;5048610;28;20454;-70
2023/07/22 06:32:07;;;;;;;8.13;3.00;;;;;;;15.82;100.00;100802.25;5047096;28;20469;-72
2023/07/22 06:34:33;;;;;;;9.00;2.90;;;;;;;15.88;100.00;100800.13;5049679;28;20549;-71
2023/07/22 06:37:00;;;;;;;8.33;2.67;;;;;;;16.01;100.00;100806.47;5040364;28;20489;-72
2023/07/22 06:39:27;;;;;;;6.27;2.23;;;;;;;16.06;100.00;100809.78;5047153;28;20452;-71
2023/07/22 06:41:53;;;;;;;7.10;2.40;;;;;;;16.16;100.00;100803.16;5051479;28;20545;-72
2023/07/22 06:44:20;;;;;;;7.60;2.60;;;;;;;16.23;100.00;100810.81;5053516;28;20670;-71
2023/07/22 06:46:47;;;;;;;6.60;1.93;;;;;;;16.35;99.98;100808.13;5054997;28;20517;-73
2023/07/22 06:49:15;;;;;;;9.77;2.90;;;;;;;16.42;99.26;100807.59;5053843;28;20530;-69
2023/07/22 06:51:42;;;;;;;6.83;2.20;;;;;;;16.46;99.94;100814.78;5038304;28;20486;-70
2023/07/22 06:54:09;;;;;;;7.63;2.40;;;;;;;16.39;99.86;100817.28;5047630;28;20491;-71
2023/07/22 06:56:35;;;;;;;6.83;2.07;;;;;;;16.40;96.33;100810.66;5055034;28;20470;-71
2023/07/22 06:59:02;;;;;;;7.23;2.23;;;;;;;16.50;95.41;100814.91;5044748;28;21022;-71
2023/07/22 07:01:29;;;;;;;8.07;2.17;;;;;;;16.58;92.81;100811.31;5042381;28;20997;-68
2023/07/22 07:03:56;;;;;;;6.37;2.10;;;;;;;16.38;92.15;100818.41;5048879;28;20546;-68
2023/07/22 07:06:24;;;;;;;7.37;2.27;;;;;;;16.43;93.75;100818.22;5052167;28;20486;-69
2023/07/22 07:08:52;;;;;;;8.33;1.63;;;;;;;16.52;95.70;100813.47;5054223;28;20439;-69
2023/07/22 07:11:18;;;;;;;8.03;1.87;;;;;;;16.65;97.90;100817.06;5051154;28;20458;-69
2023/07/22 07:13:45;;;;;;;6.53;2.03;;;;;;;16.74;94.50;100815.06;5054590;28;21085;-68
2023/07/22 07:16:23;;;;;;;6.90;1.90;;;;;;;16.72;89.95;100820.06;5051344;28;20488;-69
2023/07/22 07:18:50;;;;;;;6.50;2.10;;;;;;;16.70;92.30;100824.25;5051513;28;20957;-68
2023/07/22 07:21:16;;;;;;;7.17;2.37;;;;;;;16.79;91.28;100822.25;5046091;28;21042;-68
2023/07/22 07:23:44;;;;;;;10.90;3.23;;;;;;;16.84;87.81;100824.78;5045713;28;20521;-68
2023/07/22 07:26:11;;;;;;;7.83;2.80;;;;;;;16.85;86.71;100829.91;5040923;28;20512;-69
2023/07/22 07:28:38;;;;;;;8.67;2.00;;;;;;;16.82;89.00;100824.28;5044210;28;20474;-69
2023/07/22 07:31:05;;;;;;;6.60;1.97;;;;;;;16.86;87.02;100819.75;5040948;28;20942;-69
2023/07/22 07:33:31;;;;;;;9.50;2.60;;;;;;;16.98;87.27;100829.94;5033947;28;21041;-73
2023/07/22 07:35:58;;;;;;;8.43;2.50;;;;;;;17.07;87.51;100830.66;5034141;28;21057;-72
2023/07/22 07:38:25;;;;;;;10.60;2.33;;;;;;;17.18;88.00;100836.47;5038594;28;20529;-72
2023/07/22 07:40:54;;;;;;;7.67;2.47;;;;;;;17.16;88.14;100839.56;5049647;28;20577;-72
2023/07/22 07:43:21;;;;;;;7.60;3.10;;;;;;;17.25;84.86;100851.22;5047008;28;20470;-71
2023/07/22 07:45:47;;;;;;;6.20;1.97;;;;;;;17.25;84.29;100847.69;5053946;28;20469;-70
2023/07/22 07:48:14;;;;;;;6.20;1.90;;;;;;;17.27;85.56;100848.94;5037332;28;20439;-69
2023/07/22 07:50:41;;;;;;;6.77;1.80;;;;;;;17.36;81.95;100852.38;5050257;28;20486;-70
2023/07/22 07:53:07;;;;;;;8.77;1.87;;;;;;;17.37;82.48;100853.97;5045349;28;21018;-73
2023/07/22 07:55:34;;;;;;;6.00;1.63;;;;;;;17.42;84.52;100846.69;5042577;28;20506;-72
2023/07/22 07:58:02;;;;;;;6.73;1.93;;;;;;;17.44;84.44;100847.94;5049328;28;20508;-72
2023/07/22 08:00:29;;;;;;;11.20;2.70;;;;;;;17.45;83.96;100849.53;5046319;28;21022;-72
2023/07/22 08:02:55;;;;;;;6.13;1.43;;;;;;;17.49;82.73;100855.94;5045384;28;20553;-72
2023/07/22 08:05:22;;;;;;;8.50;2.20;;;;;;;17.46;81.63;100855.81;5040216;22;20990;-71
2023/07/22 08:07:49;;;;;;;8.10;1.87;;;;;;;17.36;81.16;100848.84;5008083;28;20456;-71
2023/07/22 08:10:15;;;;;;;6.00;1.80;;;;;;;17.32;82.95;100856.94;5009844;28;20471;-71
2023/07/22 08:12:42;;;;;;;6.33;1.73;;;;;;;17.42;82.13;100861.16;5007135;28;21032;-71
2023/07/22 08:15:11;;;;;;;6.53;1.87;;;;;;;17.56;77.84;100866.31;5012069;28;20562;-70
2023/07/22 08:17:37;;;;;;;6.63;2.17;;;;;;;17.60;78.06;100859.81;5012316;28;20456;-71
2023/07/22 08:20:06;;;;;;;6.97;2.40;;;;;;;17.72;77.33;100853.56;5006169;28;20515;-70
2023/07/22 08:22:32;;;;;;;6.97;2.00;;;;;;;17.87;78.10;100860.31;5010677;28;20842;-70
2023/07/22 08:24:59;;;;;;;8.83;2.47;;;;;;;17.99;77.50;100859.50;5008096;28;20479;-71
2023/07/22 08:27:26;;;;;;;6.70;1.70;;;;;;;18.10;79.55;100868.84;5007682;28;20468;-70
2023/07/22 08:29:52;;;;;;;8.03;2.17;;;;;;;18.13;77.93;100859.94;5012800;28;20460;-70
2023/07/22 08:32:20;;;;;;;6.17;2.00;;;;;;;18.05;77.58;100869.09;5012606;28;20543;-70
2023/07/22 08:34:47;;;;;;;6.60;1.73;;;;;;;17.98;76.54;100866.13;5013452;28;20567;-70
2023/07/22 08:37:13;;;;;;;5.73;1.63;;;;;;;18.08;76.24;100871.16;5012609;28;20474;-70
2023/07/22 08:39:40;;;;;;;6.80;2.00;;;;;;;18.02;76.01;100870.59;5011573;28;20506;-70
2023/07/22 08:42:08;;;;;;;7.60;2.30;;;;;;;18.11;77.27;100873.22;5007632;28;20519;-70
2023/07/22 08:44:39;;;;;;;6.77;1.40;;;;;;;18.19;76.21;100876.94;5008200;28;20547;-70
2023/07/22 08:47:08;;;;;;;7.33;2.50;;;;;;;18.34;74.58;100885.28;5010177;28;20483;-70
2023/07/22 08:49:36;;;;;;;9.30;2.40;;;;;;;18.42;78.41;100886.28;5008729;28;20487;-70
2023/07/22 08:52:03;;;;;;;6.23;1.73;;;;;;;18.44;72.66;100883.19;5012025;28;20810;-70
2023/07/22 08:54:30;;;;;;;5.57;1.67;;;;;;;18.39;70.60;100897.94;5009626;28;20490;-70
2023/07/22 08:56:57;;;;;;;6.70;1.30;;;;;;;18.31;71.29;100888.69;5005809;28;20475;-70
2023/07/22 08:59:25;;;;;;;7.67;2.10;;;;;;;18.37;71.19;100872.78;4993810;28;20898;-70
2023/07/22 09:01:52;;;;;;;5.87;1.67;;;;;;;18.39;72.36;100887.78;4995247;28;20516;-70
2023/07/22 09:04:20;;;;;;;8.93;1.70;;;;;;;18.44;73.21;100883.19;4993214;28;20445;-70
2023/07/22 09:06:48;;;;;;;8.00;2.10;;;;;;;18.59;75.11;100887.94;4993785;28;20434;-70
2023/07/22 09:09:15;;;;;;;6.80;2.10;;;;;;;18.81;72.11;100889.38;4995266;28;20461;-70
2023/07/22 09:11:42;;;;;;;5.40;1.30;;;;;;;18.89;73.10;100881.00;5012681;28;20814;-70
2023/07/22 09:14:10;;;;;;;8.70;1.80;;;;;;;18.95;67.67;100884.31;5013146;28;20471;-70
2023/07/22 09:16:38;;;;;;;5.77;1.73;;;;;;;19.15;67.96;100885.22;5012872;28;20990;-70
2023/07/22 09:19:06;;;;;;;5.37;1.63;;;;;;;19.28;69.21;100877.72;5013275;28;20785;-69
2023/07/22 09:21:35;;;;;;;5.33;1.07;;;;;;;19.39;68.34;100885.09;5012998;28;20483;-70
2023/07/22 09:24:23;;;;;;;7.53;1.60;;;;;;;19.50;68.95;100884.56;5012647;28;20459;-70
2023/07/22 09:26:50;;;;;;;4.90;1.17;;;;;;;19.58;68.51;100875.34;5010970;28;20982;-70
2023/07/22 09:29:17;;;;;;;6.90;1.40;;;;;;;19.68;64.83;100877.56;5013121;28;20440;-70
2023/07/22 09:31:52;;;;;;;5.17;1.27;;;;;;;19.85;62.70;100890.16;5016099;28;20490;-70
2023/07/22 09:34:19;;;;;;;5.10;1.10;;;;;;;20.01;61.07;100882.69;5016365;28;20451;-70
2023/07/22 09:36:52;;;;;;;5.73;1.20;;;;;;;19.98;61.88;100896.34;5016667;28;20451;-71
2023/07/22 09:39:20;;;;;;;5.90;1.17;;;;;;;19.87;61.44;100883.13;5016586;28;20523;-70
2023/07/22 09:41:47;;;;;;;6.10;1.47;;;;;;;19.91;61.83;100894.22;5016424;28;20565;-70
2023/07/22 09:44:13;;;;;;;4.80;0.90;;;;;;;19.94;64.48;100885.28;5016438;28;20502;-70
2023/07/22 09:46:40;;;;;;;6.10;1.40;;;;;;;19.97;60.24;100892.81;5015901;28;20503;-70
2023/07/22 09:49:09;;;;;;;6.90;1.40;;;;;;;20.13;60.45;100901.03;5016454;28;20447;-70
2023/07/22 09:51:37;;;;;;;5.83;1.20;;;;;;;20.13;58.64;100884.50;5016447;28;20455;-70
2023/07/22 09:54:04;;;;;;;5.07;1.07;;;;;;;20.26;58.49;100883.25;5015987;28;20484;-70
2023/07/22 09:56:33;;;;;;;6.03;1.00;;;;;;;20.28;61.21;100877.41;5032383;28;20827;-70
2023/07/22 09:59:05;;;;;;;5.37;1.20;;;;;;;20.37;58.15;100889.78;5035990;28;20538;-70
2023/07/22 10:01:33;;;;;;;4.90;1.10;;;;;;;20.46;59.21;100899.78;5035893;28;21035;-71
2023/07/22 10:04:00;;;;;;;7.77;1.90;;;;;;;20.35;59.72;100899.53;5035897;28;20529;-70
2023/07/22 10:06:29;;;;;;;4.83;0.97;;;;;;;20.24;58.25;100891.06;5035456;28;20471;-70
2023/07/22 10:08:56;;;;;;;4.57;0.97;;;;;;;20.22;58.99;100890.63;5035868;28;20530;-70
2023/07/22 10:11:23;;;;;;;6.37;1.30;;;;;;;19.95;58.61;100891.56;5035974;28;20471;-70
2023/07/22 10:13:53;;;;;;;5.10;1.13;;;;;;;20.09;59.06;100894.63;5036084;28;20440;-70
2023/07/22 10:16:20;;;;;;;5.17;1.00;;;;;;;20.14;60.74;100897.09;5035347;28;20485;-70
2023/07/22 10:18:48;;;;;;;5.00;1.07;;;;;;;20.25;57.29;100892.66;5016138;28;20455;-70
2023/07/22 10:21:15;;;;;;;5.20;1.30;;;;;;;20.39;58.32;100895.72;5015670;28;20490;-69
2023/07/22 10:23:42;;;;;;;5.33;1.03;;;;;;;20.46;56.35;100908.06;5015750;28;20444;-70
2023/07/22 10:26:13;;;;;;;6.60;1.53;;;;;;;20.56;57.83;100891.78;5016008;28;20546;-70
2023/07/22 10:28:41;;;;;;;6.90;1.50;;;;;;;20.56;56.93;100893.75;5016061;28;20802;-69
2023/07/22 10:31:18;;;;;;;6.73;1.40;;;;;;;20.63;56.73;100894.69;5015654;28;20447;-68
2023/07/22 10:33:45;;;;;;;4.97;1.17;;;;;;;20.64;55.04;100901.78;5015521;28;20934;-69
2023/07/22 10:36:15;;;;;;;4.83;1.13;;;;;;;20.61;55.90;100902.50;5015520;28;20468;-69
2023/07/22 10:38:42;;;;;;;6.03;1.57;;;;;;;20.73;54.05;100896.06;5015758;28;20507;-69
2023/07/22 10:41:13;;;;;;;6.70;1.53;;;;;;;21.03;53.66;100909.22;5015284;28;20472;-70
2023/07/22 10:43:40;;;;;;;6.50;1.33;;;;;;;21.12;54.68;100901.56;5015246;28;20491;-69
2023/07/22 10:46:12;;;;;;;7.20;1.90;;;;;;;21.38;51.58;100892.59;5015498;28;20460;-70
2023/07/22 10:48:41;;;;;;;5.10;1.20;;;;;;;21.42;51.96;100899.75;5015788;28;20478;-69
2023/07/22 10:51:10;;;;;;;7.63;1.20;;;;;;;21.09;54.19;100896.75;5015243;28;20506;-69
2023/07/22 10:53:43;;;;;;;5.67;1.40;;;;;;;21.11;52.17;100891.69;5015483;28;20448;-69
2023/07/22 10:56:17;;;;;;;5.67;1.40;;;;;;;21.24;52.47;100897.81;5015325;28;20495;-70
2023/07/22 10:59:01;;;;;;;5.80;1.40;;;;;;;21.12;51.77;100885.03;5015321;28;20539;-70
2023/07/22 11:01:48;;;;;;;5.27;1.00;;;;;;;21.18;51.53;100886.31;5014951;28;20490;-70
2023/07/22 11:04:24;;;;;;;5.40;1.20;;;;;;;21.22;53.40;100894.66;5014927;28;20793;-69
2023/07/22 11:06:55;;;;;;;5.70;1.60;;;;;;;21.29;49.68;100894.75;5015585;28;20436;-70
2023/07/22 11:09:39;;;;;;;7.30;1.10;;;;;;;21.26;49.11;100888.03;5014728;28;20479;-70
2023/07/22 11:12:07;;;;;;;7.03;1.50;;;;;;;21.33;49.69;100888.19;5014244;28;20456;-71
2023/07/22 11:14:35;;;;;;;5.20;1.53;;;;;;;21.15;51.12;100889.78;5013755;28;20491;-70
2023/07/22 11:17:05;;;;;;;6.60;1.93;;;;;;;21.08;51.54;100884.94;5013758;28;20450;-71
2023/07/22 11:19:32;;;;;;;6.03;1.30;;;;;;;20.99;52.04;100876.13;5014434;28;20478;-70
2023/07/22 11:21:59;;;;;;;5.27;1.23;;;;;;;20.98;52.97;100881.97;5014343;28;20824;-71